Time;durP1;ratioP1;P1;durP2;ratioP2;P2;SDS_P1;SDS_P2;PMS_P1;PMS_P2;Temp;Humidity;BMP_temperature;BMP_pressure;BME280_temperature;BME280_humidity;BME280_pressure;Samples;Min_cycle;Max_cycle;Signal;HPM_P1;HPM_P2
2022/01/17 00:01:41;;;;;;;47.08;23.52;;;6.40;99.90;;;;;;4164109;28;20136;-65
2022/01/17 00:03:42;;;;;;;43.97;24.02;;;6.50;99.90;;;;;;4164945;28;20435;-65
2022/01/17 00:05:43;;;;;;;42.90;23.33;;;6.50;99.90;;;;;;4163764;28;20045;-64
2022/01/17 00:07:44;;;;;;;46.67;24.33;;;6.50;99.90;;;;;;4164715;28;20475;-64
2022/01/17 00:09:45;;;;;;;53.40;25.42;;;6.50;99.90;;;;;;4164767;28;20055;-64
2022/01/17 00:11:48;;;;;;;53.95;26.75;;;6.50;99.90;;;;;;4163868;28;20555;-64
2022/01/17 00:13:49;;;;;;;51.78;26.77;;;6.50;99.90;;;;;;4163998;28;20030;-64
2022/01/17 00:15:55;;;;;;;49.78;26.70;;;6.50;99.90;;;;;;4164021;28;20041;-64
2022/01/17 00:18:23;;;;;;;55.53;27.52;;;6.50;99.90;;;;;;4164832;28;20033;-64
2022/01/17 00:20:25;;;;;;;60.97;28.90;;;6.50;99.90;;;;;;4161113;28;20401;-64
2022/01/17 00:22:25;;;;;;;52.17;24.92;;;6.50;99.90;;;;;;4164559;28;20033;-64
2022/01/17 00:24:26;;;;;;;49.63;24.98;;;6.50;99.90;;;;;;4164473;28;20034;-64
2022/01/17 00:26:26;;;;;;;54.33;29.13;;;6.60;99.90;;;;;;4163957;28;20048;-64
2022/01/17 00:28:27;;;;;;;56.40;29.15;;;6.60;99.90;;;;;;4164667;28;20397;-64
2022/01/17 00:30:29;;;;;;;56.08;29.52;;;6.50;99.90;;;;;;4163694;28;20041;-64
2022/01/17 00:32:33;;;;;;;56.78;28.52;;;6.60;99.90;;;;;;4164584;28;20045;-64
2022/01/17 00:34:34;;;;;;;61.13;29.73;;;6.60;99.90;;;;;;4164203;28;20478;-64
2022/01/17 00:36:35;;;;;;;59.42;29.52;;;6.60;99.90;;;;;;4163487;28;20084;-64
2022/01/17 00:38:36;;;;;;;58.60;29.15;;;6.50;99.90;;;;;;4163415;28;20116;-64
2022/01/17 00:40:37;;;;;;;57.72;30.90;;;6.60;99.90;;;;;;4163681;28;20046;-64
2022/01/17 00:42:37;;;;;;;60.65;30.30;;;6.60;99.90;;;;;;4164389;28;20045;-64
2022/01/17 00:44:38;;;;;;;57.92;30.80;;;6.60;99.90;;;;;;4164484;28;20045;-64
2022/01/17 00:46:39;;;;;;;63.25;31.42;;;6.60;99.90;;;;;;4163516;28;20045;-64
2022/01/17 00:48:39;;;;;;;65.30;33.40;;;6.60;99.90;;;;;;4164074;28;20108;-68
2022/01/17 00:50:40;;;;;;;60.55;32.40;;;6.60;99.90;;;;;;4163615;28;20029;-65
2022/01/17 00:52:41;;;;;;;64.00;30.95;;;6.60;99.90;;;;;;4163670;28;20038;-64
2022/01/17 00:54:41;;;;;;;63.92;31.08;;;6.60;99.90;;;;;;4164273;28;20034;-65
2022/01/17 00:56:42;;;;;;;64.72;32.67;;;6.60;99.90;;;;;;4163456;28;20069;-65
2022/01/17 00:58:43;;;;;;;60.05;30.10;;;6.60;99.90;;;;;;4164433;28;20033;-64
2022/01/17 01:00:45;;;;;;;67.82;34.22;;;6.70;99.90;;;;;;4163288;28;20651;-65
2022/01/17 01:02:46;;;;;;;66.28;33.40;;;6.60;99.90;;;;;;4162806;28;20029;-65
2022/01/17 01:04:47;;;;;;;68.43;34.00;;;6.60;99.90;;;;;;4164141;28;20053;-64
2022/01/17 01:06:48;;;;;;;69.82;32.00;;;6.70;99.90;;;;;;4163122;28;20049;-64
2022/01/17 01:08:48;;;;;;;62.55;32.65;;;6.60;99.90;;;;;;4163594;28;20030;-64
2022/01/17 01:10:49;;;;;;;65.80;33.33;;;6.70;99.90;;;;;;4163299;28;20108;-64
2022/01/17 01:12:51;;;;;;;63.40;32.78;;;6.70;99.90;;;;;;4164023;28;20037;-64
2022/01/17 01:14:52;;;;;;;63.83;31.55;;;6.70;99.90;;;;;;4162778;28;20037;-64
2022/01/17 01:16:54;;;;;;;70.82;33.47;;;6.70;99.90;;;;;;4162132;28;20042;-64
2022/01/17 01:21:24;;;;;;;74.90;34.50;;;6.70;99.90;;;;;;4162599;28;20295;-64
2022/01/17 01:28:04;;;;;;;65.63;33.58;;;6.70;99.90;;;;;;4163373;28;20121;-64
2022/01/17 01:30:08;;;;;;;66.45;34.17;;;6.70;99.90;;;;;;4163756;28;20132;-65
2022/01/17 01:32:10;;;;;;;76.30;34.95;;;6.70;99.90;;;;;;4163497;28;20034;-64
2022/01/17 01:34:11;;;;;;;65.43;33.10;;;6.70;99.90;;;;;;4162682;28;20115;-66
2022/01/17 01:36:18;;;;;;;64.68;32.63;;;6.70;99.90;;;;;;4163056;28;20033;-64
2022/01/17 01:38:18;;;;;;;67.93;33.30;;;6.70;99.90;;;;;;4163807;28;20456;-64
2022/01/17 01:40:20;;;;;;;66.50;31.95;;;6.70;99.90;;;;;;4162848;28;20036;-64
2022/01/17 01:42:23;;;;;;;63.42;31.02;;;6.70;99.90;;;;;;4159166;28;20056;-64
2022/01/17 01:44:25;;;;;;;63.58;33.40;;;6.70;99.90;;;;;;4163589;28;20037;-64
2022/01/17 01:46:25;;;;;;;71.35;33.60;;;6.70;99.90;;;;;;4162711;28;20050;-64
2022/01/17 01:48:31;;;;;;;60.65;31.42;;;6.70;99.90;;;;;;4162697;28;20554;-64
2022/01/17 01:50:32;;;;;;;55.00;29.13;;;6.80;99.90;;;;;;4162171;28;20041;-64
2022/01/17 01:52:33;;;;;;;57.00;30.25;;;6.80;99.90;;;;;;4163168;28;20354;-64
2022/01/17 01:54:33;;;;;;;56.28;28.60;;;6.80;99.90;;;;;;4163245;28;20034;-64
2022/01/17 01:56:40;;;;;;;62.63;30.98;;;6.80;99.90;;;;;;4161342;28;20033;-64
2022/01/17 01:58:41;;;;;;;55.90;29.88;;;6.80;99.90;;;;;;4162671;28;20041;-68
2022/01/17 02:00:41;;;;;;;64.57;31.50;;;6.80;99.90;;;;;;4162246;28;20069;-65
2022/01/17 02:02:42;;;;;;;50.97;28.25;;;6.80;99.90;;;;;;4162925;28;20366;-64
2022/01/17 02:04:43;;;;;;;55.40;28.33;;;6.80;99.90;;;;;;4162976;28;20045;-64
2022/01/17 02:06:44;;;;;;;59.28;29.88;;;6.80;99.90;;;;;;4161930;28;20045;-64
2022/01/17 02:08:45;;;;;;;54.17;28.52;;;6.80;99.90;;;;;;4162756;28;20055;-64
2022/01/17 02:10:45;;;;;;;63.83;29.40;;;6.80;99.90;;;;;;4158156;28;20029;-64
2022/01/17 02:12:46;;;;;;;66.10;31.13;;;6.80;99.90;;;;;;4162828;28;20048;-64
2022/01/17 02:14:48;;;;;;;50.38;26.90;;;6.80;99.90;;;;;;4163164;28;20384;-64
2022/01/17 02:16:50;;;;;;;53.45;28.02;;;6.80;99.90;;;;;;4162252;28;20042;-64
2022/01/17 02:18:51;;;;;;;51.80;27.13;;;6.80;99.90;;;;;;4163101;28;20041;-64
2022/01/17 02:21:11;;;;;;;48.85;27.83;;;6.80;99.90;;;;;;4162187;28;20048;-64
2022/01/17 02:23:14;;;;;;;64.32;31.08;;;6.80;99.90;;;;;;4162715;28;20029;-65
2022/01/17 02:25:15;;;;;;;60.95;29.80;;;6.70;99.90;;;;;;4162517;28;20087;-64
2022/01/17 02:27:15;;;;;;;62.78;31.27;;;6.70;99.90;;;;;;4162811;28;20080;-64
2022/01/17 02:29:16;;;;;;;52.90;28.52;;;6.80;99.90;;;;;;4162774;28;20045;-64
2022/01/17 02:31:18;;;;;;;61.47;29.27;;;6.80;99.90;;;;;;4162441;28;20042;-64
2022/01/17 02:33:19;;;;;;;62.25;31.38;;;6.80;99.90;;;;;;4162924;28;20041;-64
2022/01/17 02:35:23;;;;;;;58.10;30.73;;;6.80;99.90;;;;;;4162186;28;20038;-64
2022/01/17 02:37:24;;;;;;;57.15;29.25;;;6.80;99.90;;;;;;4162976;28;20476;-64
2022/01/17 02:39:24;;;;;;;65.35;32.47;;;6.80;99.90;;;;;;4162393;28;20041;-63
2022/01/17 02:41:46;;;;;;;61.72;30.30;;;6.80;99.90;;;;;;4162176;28;20435;-64
2022/01/17 02:43:47;;;;;;;60.45;30.95;;;6.80;99.90;;;;;;4159892;28;20049;-64
2022/01/17 02:47:52;;;;;;;60.70;30.63;;;6.80;99.90;;;;;;4154461;28;20522;-64
2022/01/17 02:49:53;;;;;;;60.17;31.83;;;6.80;99.90;;;;;;4161493;28;20042;-64
2022/01/17 02:51:54;;;;;;;59.35;31.05;;;6.80;99.90;;;;;;4162111;28;20388;-64
2022/01/17 02:53:54;;;;;;;56.22;31.25;;;6.80;99.90;;;;;;4162402;28;20092;-63
2022/01/17 02:55:58;;;;;;;62.78;31.08;;;6.80;99.90;;;;;;4161883;28;20052;-64
2022/01/17 02:57:58;;;;;;;62.58;31.08;;;6.80;99.90;;;;;;4162835;28;20037;-64
2022/01/17 02:59:59;;;;;;;59.50;31.15;;;6.80;99.90;;;;;;4162668;28;20038;-64
2022/01/17 03:02:00;;;;;;;63.15;29.85;;;6.80;99.90;;;;;;4162485;28;20026;-64
2022/01/17 03:04:00;;;;;;;65.10;32.10;;;6.80;99.90;;;;;;4165968;28;20442;-64
2022/01/17 03:06:01;;;;;;;65.38;32.05;;;6.80;99.90;;;;;;4163985;28;20133;-64
2022/01/17 03:08:03;;;;;;;58.13;30.42;;;6.80;99.90;;;;;;4155963;28;20534;-64
2022/01/17 03:10:09;;;;;;;55.57;27.67;;;6.80;99.90;;;;;;4165275;28;20383;-65
2022/01/17 03:12:10;;;;;;;58.30;28.05;;;6.80;99.90;;;;;;4162337;28;20268;-64
2022/01/17 03:14:11;;;;;;;59.45;27.85;;;6.80;99.90;;;;;;4165839;28;20429;-64
2022/01/17 03:16:14;;;;;;;51.13;27.60;;;6.80;99.90;;;;;;4164747;28;20065;-67
2022/01/17 03:18:15;;;;;;;66.18;30.38;;;6.80;99.90;;;;;;4165546;28;20064;-64
2022/01/17 03:20:15;;;;;;;63.08;29.17;;;6.80;99.90;;;;;;4164912;28;20063;-64
2022/01/17 03:22:16;;;;;;;55.30;27.83;;;6.80;99.90;;;;;;4164783;28;20069;-64
2022/01/17 03:24:17;;;;;;;52.13;26.90;;;6.80;99.90;;;;;;4147923;28;20496;-64
2022/01/17 03:26:18;;;;;;;65.72;29.80;;;6.80;99.90;;;;;;4148807;28;20077;-64
2022/01/17 03:28:19;;;;;;;54.40;26.90;;;6.80;99.90;;;;;;4149353;28;20041;-64
2022/01/17 03:30:19;;;;;;;52.47;28.58;;;6.80;99.90;;;;;;4149409;28;20095;-64
2022/01/17 03:32:20;;;;;;;54.47;27.05;;;6.80;99.90;;;;;;4165295;28;20037;-64
2022/01/17 03:34:21;;;;;;;60.13;27.15;;;6.90;99.90;;;;;;4165383;28;20480;-64
2022/01/17 03:36:21;;;;;;;50.55;27.17;;;6.90;99.90;;;;;;4164785;28;20042;-64
2022/01/17 03:38:24;;;;;;;52.42;27.67;;;6.80;99.90;;;;;;4165504;28;20404;-64
2022/01/17 03:40:25;;;;;;;53.50;27.25;;;6.80;99.90;;;;;;4164493;28;20060;-64
2022/01/17 03:42:26;;;;;;;52.15;26.83;;;6.80;99.90;;;;;;4165459;28;20060;-64
2022/01/17 03:44:26;;;;;;;49.33;26.02;;;6.80;99.90;;;;;;4165582;28;20037;-64
2022/01/17 03:46:27;;;;;;;57.95;27.20;;;6.80;99.90;;;;;;4164416;28;20049;-64
2022/01/17 03:48:29;;;;;;;50.05;26.15;;;6.80;99.90;;;;;;4164975;28;20392;-64
2022/01/17 03:50:30;;;;;;;53.45;26.23;;;6.80;99.90;;;;;;4164150;28;20030;-64
2022/01/17 03:52:30;;;;;;;54.60;25.67;;;6.80;99.90;;;;;;4163760;28;20434;-64
2022/01/17 03:54:31;;;;;;;50.30;25.58;;;6.80;99.90;;;;;;4165077;28;20152;-64
2022/01/17 03:56:32;;;;;;;52.38;25.70;;;6.80;99.90;;;;;;4164148;28;20136;-64
2022/01/17 03:58:33;;;;;;;46.30;24.42;;;6.70;99.90;;;;;;4165066;28;20041;-64
2022/01/17 04:00:41;;;;;;;42.38;21.05;;;6.80;99.90;;;;;;4164158;28;20075;-64
2022/01/17 04:02:42;;;;;;;45.75;22.75;;;6.70;99.90;;;;;;4164515;28;20040;-64
2022/01/17 04:04:42;;;;;;;49.63;22.90;;;6.60;99.90;;;;;;4164748;28;20485;-66
2022/01/17 04:06:43;;;;;;;49.08;22.85;;;6.70;99.90;;;;;;4164207;28;20049;-65
2022/01/17 04:08:44;;;;;;;41.47;21.17;;;6.70;99.90;;;;;;4164967;28;20461;-64
2022/01/17 04:10:44;;;;;;;48.40;23.52;;;6.70;99.90;;;;;;4151369;28;20038;-64
2022/01/17 04:12:46;;;;;;;49.00;22.65;;;6.70;99.90;;;;;;4148383;28;20037;-64
2022/01/17 04:14:46;;;;;;;48.65;21.88;;;6.60;99.90;;;;;;4148585;28;20397;-64
2022/01/17 04:16:47;;;;;;;48.08;22.42;;;6.60;99.90;;;;;;4147684;28;20121;-64
2022/01/17 04:18:47;;;;;;;42.45;20.92;;;6.60;99.90;;;;;;4148409;28;20042;-64
2022/01/17 04:20:48;;;;;;;46.92;21.23;;;6.60;99.90;;;;;;4160533;28;20197;-64
2022/01/17 04:22:52;;;;;;;37.65;19.10;;;6.60;99.90;;;;;;4164716;28;20428;-64
2022/01/17 04:24:52;;;;;;;43.78;21.55;;;6.60;99.90;;;;;;4164615;28;20041;-64
2022/01/17 04:26:53;;;;;;;46.60;21.95;;;6.60;99.90;;;;;;4159661;28;20053;-64
2022/01/17 04:28:54;;;;;;;43.85;21.50;;;6.60;99.90;;;;;;4164421;28;20033;-64
2022/01/17 04:30:55;;;;;;;50.45;21.60;;;6.60;99.90;;;;;;4164088;28;20095;-64
2022/01/17 04:32:57;;;;;;;45.92;20.67;;;6.60;99.90;;;;;;4164530;28;20033;-64
2022/01/17 04:34:57;;;;;;;45.73;21.77;;;6.60;99.90;;;;;;4164746;28;20037;-64
2022/01/17 04:36:58;;;;;;;39.65;19.77;;;6.60;99.90;;;;;;4164107;28;20279;-64
2022/01/17 04:38:58;;;;;;;42.72;20.40;;;6.60;99.90;;;;;;4164180;28;20037;-64
2022/01/17 04:41:05;;;;;;;40.70;20.55;;;6.60;99.90;;;;;;4163521;28;20033;-64
2022/01/17 04:43:20;;;;;;;45.67;20.33;;;6.60;99.90;;;;;;4164311;28;20697;-64
2022/01/17 04:45:21;;;;;;;38.83;19.80;;;6.60;99.90;;;;;;4146849;28;20393;-64
2022/01/17 04:47:22;;;;;;;40.28;20.42;;;6.70;99.90;;;;;;4148070;28;20069;-64
2022/01/17 04:49:22;;;;;;;38.58;18.63;;;6.60;99.90;;;;;;4161795;28;20087;-64
2022/01/17 04:51:23;;;;;;;42.65;19.83;;;6.70;99.90;;;;;;4160730;28;20041;-64
2022/01/17 04:53:24;;;;;;;41.95;20.63;;;6.60;99.90;;;;;;4163947;28;20457;-64
2022/01/17 04:55:26;;;;;;;35.90;19.63;;;6.60;99.90;;;;;;4163637;28;21652;-64
2022/01/17 04:57:27;;;;;;;;;;;6.60;99.90;;;;;;4164802;28;20396;-64
2022/01/17 04:59:27;;;;;;;36.25;18.60;;;6.60;99.90;;;;;;4164010;28;19909;-64
2022/01/17 05:01:28;;;;;;;32.85;18.33;;;6.60;99.90;;;;;;4162659;28;20041;-64
2022/01/17 05:03:28;;;;;;;46.42;19.20;;;6.60;99.90;;;;;;4162483;28;20042;-64
2022/01/17 05:05:29;;;;;;;33.05;18.73;;;6.60;99.90;;;;;;4162562;28;20496;-64
2022/01/17 05:07:30;;;;;;;40.00;19.00;;;6.60;99.90;;;;;;4163553;28;20026;-64
2022/01/17 05:09:30;;;;;;;36.58;18.73;;;6.60;99.90;;;;;;4163682;28;20064;-64
2022/01/17 05:11:31;;;;;;;42.60;20.40;;;6.60;99.90;;;;;;4162135;28;20091;-64
2022/01/17 05:13:34;;;;;;;39.55;19.73;;;6.60;99.90;;;;;;4163597;28;20198;-64
2022/01/17 05:15:42;;;;;;;44.47;21.00;;;6.60;99.90;;;;;;4162696;28;20037;-65
2022/01/17 05:17:55;;;;;;;35.10;19.30;;;6.60;99.90;;;;;;4160850;28;20029;-66
2022/01/17 05:19:58;;;;;;;39.90;19.98;;;6.60;99.90;;;;;;4163584;28;20046;-64
2022/01/17 05:21:59;;;;;;;47.42;20.52;;;6.60;99.90;;;;;;4159390;28;20464;-64
2022/01/17 05:24:00;;;;;;;38.50;20.77;;;6.60;99.90;;;;;;4160361;28;20041;-64
2022/01/17 05:26:01;;;;;;;42.95;22.35;;;6.50;99.90;;;;;;4158498;28;20041;-63
2022/01/17 05:28:01;;;;;;;39.42;19.98;;;6.60;99.90;;;;;;4160060;28;20049;-64
2022/01/17 05:30:11;;;;;;;34.97;19.00;;;6.50;99.90;;;;;;4159620;28;20045;-64
2022/01/17 05:32:12;;;;;;;42.25;19.65;;;6.60;99.90;;;;;;4158983;28;20067;-64
2022/01/17 05:34:13;;;;;;;38.45;19.58;;;6.60;99.90;;;;;;4159576;28;20967;-65
2022/01/17 05:36:14;;;;;;;35.63;19.30;;;6.60;99.90;;;;;;4160270;28;20054;-65
2022/01/17 05:38:14;;;;;;;39.00;20.00;;;6.60;99.90;;;;;;4160499;28;20072;-64
2022/01/17 05:40:16;;;;;;;37.13;18.85;;;6.60;99.90;;;;;;4157816;28;20132;-65
2022/01/17 05:42:18;;;;;;;35.42;18.83;;;6.50;99.90;;;;;;4159654;28;20488;-64
2022/01/17 05:44:19;;;;;;;31.07;17.87;;;6.50;99.90;;;;;;4156587;28;20481;-64
2022/01/17 05:46:19;;;;;;;38.08;17.70;;;6.60;99.90;;;;;;4158955;28;20292;-64
2022/01/17 05:48:20;;;;;;;37.60;18.73;;;6.50;99.90;;;;;;4159523;28;20159;-64
2022/01/17 05:50:21;;;;;;;34.90;18.02;;;6.50;99.90;;;;;;4158697;28;20041;-64
2022/01/17 05:52:21;;;;;;;37.25;17.92;;;6.60;99.90;;;;;;4159177;28;20408;-64
2022/01/17 05:54:22;;;;;;;41.75;18.35;;;6.50;99.90;;;;;;4159683;28;20538;-64
2022/01/17 05:56:22;;;;;;;30.98;17.25;;;6.50;99.90;;;;;;4157028;28;20049;-64
2022/01/17 05:58:23;;;;;;;29.92;15.98;;;6.50;99.90;;;;;;4157915;28;20096;-64
2022/01/17 06:00:24;;;;;;;33.88;16.95;;;6.50;99.90;;;;;;4157076;28;20041;-64
2022/01/17 06:02:24;;;;;;;35.28;16.73;;;6.50;99.90;;;;;;4158793;28;20036;-64
2022/01/17 06:04:25;;;;;;;33.22;15.88;;;6.50;99.90;;;;;;4159681;28;20384;-64
2022/01/17 06:06:25;;;;;;;29.40;15.68;;;6.50;99.90;;;;;;4158738;28;20041;-64
2022/01/17 06:08:26;;;;;;;33.08;16.50;;;6.60;99.90;;;;;;4160513;28;20160;-64
2022/01/17 06:10:27;;;;;;;27.52;14.43;;;6.60;99.90;;;;;;4157202;28;20038;-64
2022/01/17 06:12:27;;;;;;;29.58;16.20;;;6.60;99.90;;;;;;4159436;28;20025;-64
2022/01/17 06:14:29;;;;;;;31.63;15.10;;;6.60;99.90;;;;;;4159509;28;20491;-64
2022/01/17 06:16:30;;;;;;;26.83;14.73;;;6.60;99.90;;;;;;4159298;28;20049;-64
2022/01/17 06:18:31;;;;;;;30.98;15.55;;;6.60;99.90;;;;;;4159608;28;20040;-64
2022/01/17 06:20:31;;;;;;;34.63;16.90;;;6.60;99.90;;;;;;4158449;28;20120;-64
2022/01/17 06:22:32;;;;;;;32.58;15.88;;;6.60;99.90;;;;;;4156243;28;20038;-64
2022/01/17 06:24:33;;;;;;;31.45;15.25;;;6.60;99.90;;;;;;4159026;28;20170;-64
2022/01/17 06:26:34;;;;;;;29.80;15.77;;;6.60;99.90;;;;;;4159470;28;20046;-64
2022/01/17 06:28:35;;;;;;;31.08;16.65;;;6.60;99.90;;;;;;4158053;28;20072;-64
2022/01/17 06:30:35;;;;;;;28.48;14.07;;;6.60;99.90;;;;;;4157302;28;20032;-64
2022/01/17 06:32:36;;;;;;;29.48;14.48;;;6.60;99.90;;;;;;4157725;28;20054;-64
2022/01/17 06:34:37;;;;;;;29.95;14.88;;;6.60;99.90;;;;;;4159228;28;20040;-64
2022/01/17 06:36:41;;;;;;;29.33;14.13;;;6.60;99.90;;;;;;4158703;28;20037;-64
2022/01/17 06:38:41;;;;;;;29.60;14.65;;;6.50;99.90;;;;;;4163293;28;20046;-64
2022/01/17 06:40:42;;;;;;;26.83;15.35;;;6.50;99.90;;;;;;4160804;28;20087;-64
2022/01/17 06:42:43;;;;;;;31.50;13.63;;;6.50;99.90;;;;;;4162085;28;20498;-64
2022/01/17 06:44:43;;;;;;;30.55;14.07;;;6.50;99.90;;;;;;4158582;28;20045;-69
2022/01/17 06:46:44;;;;;;;30.02;13.40;;;6.50;99.90;;;;;;4159135;28;20053;-64
2022/01/17 06:48:46;;;;;;;25.73;14.25;;;6.50;99.90;;;;;;4163108;28;20060;-64
2022/01/17 06:50:47;;;;;;;29.77;15.30;;;6.40;99.90;;;;;;4159532;28;20068;-64
2022/01/17 06:52:47;;;;;;;27.23;13.23;;;6.40;99.90;;;;;;4161928;28;20481;-64
2022/01/17 06:54:48;;;;;;;32.47;14.68;;;6.40;99.90;;;;;;4163009;28;20239;-64
2022/01/17 06:56:49;;;;;;;33.45;14.23;;;6.40;99.90;;;;;;4162003;28;20378;-64
2022/01/17 06:58:49;;;;;;;26.27;13.73;;;6.40;99.90;;;;;;4162786;28;20048;-64
2022/01/17 07:00:50;;;;;;;27.02;14.10;;;6.40;99.90;;;;;;4158215;28;20038;-64
2022/01/17 07:02:51;;;;;;;28.83;13.95;;;6.40;99.90;;;;;;4161690;28;20044;-64
2022/01/17 07:04:51;;;;;;;27.85;14.27;;;6.40;99.90;;;;;;4162898;28;20083;-64
2022/01/17 07:06:52;;;;;;;24.05;13.75;;;6.30;99.90;;;;;;4156363;28;20053;-64
2022/01/17 07:08:52;;;;;;;27.27;13.88;;;6.30;99.90;;;;;;4158137;28;20416;-64
2022/01/17 07:10:53;;;;;;;26.65;12.88;;;6.30;99.90;;;;;;4158121;28;20327;-64
2022/01/17 07:12:54;;;;;;;22.83;12.73;;;6.30;99.90;;;;;;4161762;28;20041;-64
2022/01/17 07:14:55;;;;;;;25.45;13.68;;;6.30;99.90;;;;;;4162302;28;20069;-64
2022/01/17 07:16:56;;;;;;;21.80;12.65;;;6.30;99.90;;;;;;4160944;28;20037;-64
2022/01/17 07:18:56;;;;;;;24.73;13.07;;;6.30;99.90;;;;;;4161287;28;20489;-64
2022/01/17 07:20:57;;;;;;;27.38;13.52;;;6.30;99.90;;;;;;4160735;28;20037;-64
2022/01/17 07:22:58;;;;;;;28.58;15.15;;;6.30;99.90;;;;;;4161342;28;20404;-64
2022/01/17 07:25:00;;;;;;;30.30;13.20;;;6.30;99.90;;;;;;4161003;28;20244;-64
2022/01/17 07:27:00;;;;;;;29.83;14.18;;;6.30;99.90;;;;;;4161940;28;20041;-63
2022/01/17 07:29:05;;;;;;;34.35;13.95;;;6.30;99.90;;;;;;4162567;28;20582;-64
2022/01/17 07:31:05;;;;;;;26.60;14.75;;;6.30;99.90;;;;;;4159696;28;20037;-64
2022/01/17 07:33:07;;;;;;;33.00;15.52;;;6.20;99.90;;;;;;4161581;28;20055;-64
2022/01/17 07:35:09;;;;;;;30.50;14.52;;;6.30;99.90;;;;;;4161357;28;20539;-65
2022/01/17 07:37:09;;;;;;;28.77;15.48;;;6.30;99.90;;;;;;4160577;28;20448;-64
2022/01/17 07:39:10;;;;;;;37.03;15.82;;;6.30;99.90;;;;;;4156603;28;20049;-64
2022/01/17 07:41:11;;;;;;;35.25;16.48;;;6.30;99.90;;;;;;4158341;28;20049;-64
2022/01/17 07:43:11;;;;;;;28.92;15.32;;;6.30;99.90;;;;;;4161670;28;20084;-64
2022/01/17 07:45:15;;;;;;;30.25;15.05;;;6.30;99.90;;;;;;4158003;28;20049;-64
2022/01/17 07:47:18;;;;;;;34.53;17.75;;;6.30;99.90;;;;;;4155193;28;20623;-64
2022/01/17 07:49:22;;;;;;;31.05;15.68;;;6.30;99.90;;;;;;4162177;28;20056;-64
2022/01/17 07:51:25;;;;;;;26.83;16.08;;;6.30;99.90;;;;;;4159269;28;20042;-65
2022/01/17 07:53:25;;;;;;;;;;;6.30;99.90;;;;;;4162502;28;20041;-64
2022/01/17 07:55:26;;;;;;;30.35;16.30;;;6.30;99.90;;;;;;4161387;28;20375;-64
2022/01/17 07:57:27;;;;;;;33.85;16.25;;;6.30;99.90;;;;;;4162396;28;20026;-64
2022/01/17 07:59:28;;;;;;;34.35;17.25;;;6.40;99.90;;;;;;4161795;28;20026;-64
2022/01/17 08:01:29;;;;;;;30.45;16.42;;;6.40;99.90;;;;;;4158905;28;20036;-64
2022/01/17 08:03:29;;;;;;;32.78;17.08;;;6.30;99.90;;;;;;4161399;28;20392;-64
2022/01/17 08:05:30;;;;;;;36.17;19.75;;;6.40;99.90;;;;;;4159504;28;20175;-64
2022/01/17 08:07:31;;;;;;;33.53;17.52;;;6.30;99.90;;;;;;4161979;28;20032;-64
2022/01/17 08:09:31;;;;;;;36.50;18.58;;;6.30;99.90;;;;;;4162144;28;20041;-64
2022/01/17 08:11:32;;;;;;;34.88;17.90;;;6.40;99.90;;;;;;4159796;28;20037;-64
2022/01/17 08:13:33;;;;;;;35.70;18.98;;;6.30;99.90;;;;;;4161139;28;20041;-64
2022/01/17 08:15:34;;;;;;;37.35;18.98;;;6.30;99.90;;;;;;4159765;28;20084;-64
2022/01/17 08:17:35;;;;;;;36.08;18.92;;;6.30;99.90;;;;;;4161793;28;20057;-64
2022/01/17 08:19:36;;;;;;;30.65;17.60;;;6.40;99.90;;;;;;4158887;28;20042;-64
2022/01/17 08:21:36;;;;;;;30.33;18.60;;;6.40;99.90;;;;;;4158412;28;20041;-64
2022/01/17 08:23:37;;;;;;;31.55;17.15;;;6.40;99.90;;;;;;4161160;28;20412;-64
2022/01/17 08:25:38;;;;;;;34.92;18.85;;;6.40;99.90;;;;;;4160602;28;20052;-64
2022/01/17 08:27:38;;;;;;;31.65;17.70;;;6.40;99.90;;;;;;4159382;28;20044;-64
2022/01/17 08:29:39;;;;;;;34.80;18.15;;;6.40;99.90;;;;;;4160713;28;20911;-64
2022/01/17 08:31:42;;;;;;;34.72;17.83;;;6.40;99.90;;;;;;4158780;28;20540;-64
2022/01/17 08:33:43;;;;;;;30.45;17.20;;;6.40;99.90;;;;;;4161878;28;20045;-64
2022/01/17 08:35:44;;;;;;;31.58;18.30;;;6.40;99.90;;;;;;4160332;28;20037;-64
2022/01/17 08:37:45;;;;;;;35.63;19.42;;;6.40;99.90;;;;;;4159959;28;21233;-66
2022/01/17 08:39:46;;;;;;;33.45;18.52;;;6.40;99.90;;;;;;4160309;28;20041;-65
2022/01/17 08:41:47;;;;;;;38.00;21.42;;;6.40;99.90;;;;;;4158590;28;20596;-64
2022/01/17 08:43:48;;;;;;;41.28;21.88;;;6.40;99.90;;;;;;4161044;28;20980;-64
2022/01/17 08:45:49;;;;;;;41.53;21.75;;;6.40;99.90;;;;;;4160310;28;20594;-65
2022/01/17 08:47:51;;;;;;;40.95;22.45;;;6.40;99.90;;;;;;4161369;28;20057;-64
2022/01/17 08:49:52;;;;;;;39.83;21.85;;;6.40;99.90;;;;;;4161483;28;20041;-64
2022/01/17 08:51:53;;;;;;;43.97;23.10;;;6.40;99.90;;;;;;4158750;28;20141;-64
2022/01/17 08:53:53;;;;;;;41.60;22.98;;;6.40;99.90;;;;;;4160648;28;20144;-64
2022/01/17 08:55:54;;;;;;;46.78;23.73;;;6.40;99.90;;;;;;4160236;28;20049;-64
2022/01/17 08:57:54;;;;;;;46.70;24.40;;;6.50;99.90;;;;;;4160730;28;20056;-64
2022/01/17 08:59:55;;;;;;;40.55;23.55;;;6.50;99.90;;;;;;4160258;28;20049;-67
2022/01/17 09:01:56;;;;;;;46.33;25.73;;;6.50;99.90;;;;;;4157380;28;20046;-64
2022/01/17 09:03:56;;;;;;;42.50;23.73;;;6.50;99.90;;;;;;4161094;28;20129;-64
2022/01/17 09:05:57;;;;;;;45.85;24.65;;;6.50;99.90;;;;;;4160076;28;20195;-64
2022/01/17 09:07:58;;;;;;;39.42;23.23;;;6.40;99.90;;;;;;4160544;28;20040;-64
2022/01/17 09:09:59;;;;;;;53.38;25.88;;;6.40;99.90;;;;;;4160563;28;20100;-64
2022/01/17 09:12:00;;;;;;;44.90;23.48;;;6.40;99.90;;;;;;4156821;28;20056;-64
2022/01/17 09:14:00;;;;;;;49.20;23.27;;;6.40;99.90;;;;;;4160712;28;20120;-64
2022/01/17 09:16:01;;;;;;;42.15;23.83;;;6.40;99.90;;;;;;4159090;28;20092;-64
2022/01/17 09:18:03;;;;;;;44.83;24.75;;;6.40;99.90;;;;;;4160457;28;20034;-64
2022/01/17 09:20:04;;;;;;;42.78;23.35;;;6.40;99.90;;;;;;4160547;28;20519;-66
2022/01/17 09:22:07;;;;;;;42.00;24.05;;;6.40;99.90;;;;;;4156139;28;20029;-64
2022/01/17 09:24:07;;;;;;;48.13;24.00;;;6.40;99.90;;;;;;4159111;28;20040;-64
2022/01/17 09:26:08;;;;;;;39.85;22.33;;;6.40;99.90;;;;;;4157557;28;20388;-64
2022/01/17 09:28:10;;;;;;;43.75;23.70;;;6.50;99.90;;;;;;4160723;28;20049;-64
2022/01/17 09:30:13;;;;;;;39.80;23.48;;;6.50;99.90;;;;;;4159157;28;20084;-65
2022/01/17 09:32:14;;;;;;;43.25;23.95;;;6.50;99.90;;;;;;4159201;28;20038;-64
2022/01/17 09:34:15;;;;;;;43.25;23.30;;;6.50;99.90;;;;;;4159038;28;20143;-64
2022/01/17 09:36:15;;;;;;;54.08;24.90;;;6.50;99.90;;;;;;4159664;28;20049;-66
2022/01/17 09:38:18;;;;;;;42.83;24.92;;;6.60;99.90;;;;;;4160373;28;20046;-64
2022/01/17 09:40:19;;;;;;;49.05;25.42;;;6.60;99.90;;;;;;4158841;28;20041;-64
2022/01/17 09:42:20;;;;;;;44.50;24.67;;;6.60;99.90;;;;;;4158397;28;20049;-64
2022/01/17 09:44:20;;;;;;;45.17;23.17;;;6.60;99.90;;;;;;4159709;28;20061;-64
2022/01/17 09:46:27;;;;;;;42.55;22.73;;;6.60;99.90;;;;;;4159194;28;20056;-65
2022/01/17 09:48:35;;;;;;;45.15;22.35;;;6.60;99.90;;;;;;4159608;28;20045;-65
2022/01/17 09:50:46;;;;;;;38.97;21.65;;;6.60;99.90;;;;;;4158522;28;20098;-64
2022/01/17 09:52:50;;;;;;;39.33;21.25;;;6.70;99.90;;;;;;4157807;28;20053;-66
2022/01/17 09:54:51;;;;;;;45.90;21.70;;;6.70;99.90;;;;;;4159919;28;20041;-66
2022/01/17 09:56:53;;;;;;;37.92;21.95;;;6.70;99.90;;;;;;4159487;28;20045;-64
2022/01/17 09:58:54;;;;;;;35.35;19.98;;;6.80;99.90;;;;;;4160411;28;20456;-64
2022/01/17 10:00:55;;;;;;;34.55;20.30;;;6.70;99.90;;;;;;4158140;28;20049;-64
2022/01/17 10:02:59;;;;;;;35.05;19.45;;;6.80;99.90;;;;;;4159175;28;20925;-64
2022/01/17 10:05:02;;;;;;;36.53;20.70;;;6.80;99.90;;;;;;4159737;28;20400;-64
2022/01/17 10:07:05;;;;;;;38.42;20.05;;;6.80;99.90;;;;;;4159360;28;20075;-64
2022/01/17 10:09:13;;;;;;;31.88;17.70;;;6.80;99.90;;;;;;4159969;28;20451;-64
2022/01/17 10:11:16;;;;;;;38.45;18.02;;;6.80;99.90;;;;;;4156763;28;20037;-64
2022/01/17 10:13:31;;;;;;;30.75;16.58;;;6.80;99.90;;;;;;4158939;28;20065;-64
2022/01/17 10:15:44;;;;;;;37.75;18.42;;;6.90;99.90;;;;;;4159110;28;20042;-64
2022/01/17 10:17:47;;;;;;;32.25;16.55;;;6.90;99.90;;;;;;4158750;28;20037;-64
2022/01/17 10:20:02;;;;;;;30.38;16.65;;;7.00;99.90;;;;;;4159183;28;20049;-64
2022/01/17 10:22:11;;;;;;;31.60;16.45;;;7.00;99.90;;;;;;4156587;28;20034;-65
2022/01/17 10:35:34;;;;;;;34.33;15.02;;;7.10;99.90;;;;;;4157938;28;20046;-64
2022/01/17 10:37:35;;;;;;;32.20;15.13;;;7.10;99.90;;;;;;4159484;28;20041;-64
2022/01/17 10:39:37;;;;;;;29.35;14.48;;;7.00;99.90;;;;;;4159549;28;20038;-64
2022/01/17 10:41:38;;;;;;;29.63;14.20;;;7.10;99.90;;;;;;4156319;28;20048;-64
2022/01/17 10:43:42;;;;;;;27.35;14.68;;;7.10;99.90;;;;;;4158385;28;20050;-64
2022/01/17 10:45:43;;;;;;;27.80;14.15;;;7.10;99.90;;;;;;4158174;28;20038;-64
2022/01/17 10:47:46;;;;;;;28.73;13.75;;;7.10;99.90;;;;;;4159611;28;20041;-64